sensor_id;sensor_type;location;lat;lon;timestamp;pressure;altitude;pressure_sealevel;temperature;humidity
15678;BME280;7939;50.814;6.368;2023-09-19T00:01:32;99267.13;;;22.29;56.92
15678;BME280;7939;50.814;6.368;2023-09-19T00:04:01;99268.88;;;22.29;57.05
15678;BME280;7939;50.814;6.368;2023-09-19T00:06:28;99270.66;;;22.28;57.12
15678;BME280;7939;50.814;6.368;2023-09-19T00:08:57;99268.22;;;22.25;56.82
15678;BME280;7939;50.814;6.368;2023-09-19T00:11:25;99270.75;;;22.27;56.86
15678;BME280;7939;50.814;6.368;2023-09-19T00:13:52;99273.69;;;22.21;56.78
15678;BME280;7939;50.814;6.368;2023-09-19T00:16:19;99277.03;;;22.23;56.98
15678;BME280;7939;50.814;6.368;2023-09-19T00:18:46;99279.63;;;22.23;56.78
15678;BME280;7939;50.814;6.368;2023-09-19T00:21:15;99280.66;;;22.20;57.12
15678;BME280;7939;50.814;6.368;2023-09-19T00:23:42;99288.63;;;22.17;56.62
15678;BME280;7939;50.814;6.368;2023-09-19T00:26:15;99291.13;;;22.19;57.04
15678;BME280;7939;50.814;6.368;2023-09-19T00:28:43;99297.22;;;22.19;57.10
15678;BME280;7939;50.814;6.368;2023-09-19T00:31:09;99289.56;;;22.16;56.57
15678;BME280;7939;50.814;6.368;2023-09-19T00:33:36;99289.47;;;22.18;57.12
15678;BME280;7939;50.814;6.368;2023-09-19T00:36:03;99286.94;;;22.16;56.72
15678;BME280;7939;50.814;6.368;2023-09-19T00:38:32;99301.72;;;22.16;56.87
15678;BME280;7939;50.814;6.368;2023-09-19T00:40:58;99296.63;;;22.14;56.76
15678;BME280;7939;50.814;6.368;2023-09-19T00:43:26;99300.06;;;22.15;56.97
15678;BME280;7939;50.814;6.368;2023-09-19T00:45:54;99307.03;;;22.14;57.16
15678;BME280;7939;50.814;6.368;2023-09-19T00:48:22;99300.16;;;22.13;56.99
15678;BME280;7939;50.814;6.368;2023-09-19T00:50:50;99312.22;;;22.14;56.87
15678;BME280;7939;50.814;6.368;2023-09-19T00:53:21;99318.44;;;22.12;57.00
15678;BME280;7939;50.814;6.368;2023-09-19T00:55:50;99318.59;;;22.08;56.54
15678;BME280;7939;50.814;6.368;2023-09-19T00:58:18;99322.13;;;22.07;56.73
15678;BME280;7939;50.814;6.368;2023-09-19T01:00:46;99322.13;;;22.07;56.86
15678;BME280;7939;50.814;6.368;2023-09-19T01:03:14;99319.56;;;22.06;56.78
15678;BME280;7939;50.814;6.368;2023-09-19T01:05:40;99321.34;;;22.05;56.71
15678;BME280;7939;50.814;6.368;2023-09-19T01:08:07;99332.00;;;22.01;56.33
15678;BME280;7939;50.814;6.368;2023-09-19T01:10:38;99337.78;;;22.06;56.54
15678;BME280;7939;50.814;6.368;2023-09-19T01:13:17;99337.03;;;22.04;56.30
15678;BME280;7939;50.814;6.368;2023-09-19T01:15:52;99348.28;;;22.04;56.54
15678;BME280;7939;50.814;6.368;2023-09-19T01:18:27;99349.22;;;22.03;56.86
15678;BME280;7939;50.814;6.368;2023-09-19T01:21:05;99348.78;;;21.95;56.02
15678;BME280;7939;50.814;6.368;2023-09-19T01:23:52;99347.03;;;21.96;55.72
15678;BME280;7939;50.814;6.368;2023-09-19T01:26:36;99354.75;;;21.97;56.16
15678;BME280;7939;50.814;6.368;2023-09-19T01:29:23;99354.75;;;21.97;56.31
15678;BME280;7939;50.814;6.368;2023-09-19T01:32:01;99362.56;;;21.97;56.65
15678;BME280;7939;50.814;6.368;2023-09-19T01:34:43;99362.63;;;21.96;56.58
15678;BME280;7939;50.814;6.368;2023-09-19T01:37:10;99364.41;;;21.95;56.33
15678;BME280;7939;50.814;6.368;2023-09-19T01:39:37;99368.69;;;21.96;56.47
15678;BME280;7939;50.814;6.368;2023-09-19T01:42:09;99365.34;;;21.94;56.46
15678;BME280;7939;50.814;6.368;2023-09-19T01:44:44;99368.91;;;21.92;56.31
15678;BME280;7939;50.814;6.368;2023-09-19T01:47:23;99367.16;;;21.92;56.55
15678;BME280;7939;50.814;6.368;2023-09-19T01:49:56;99375.97;;;21.90;56.27
15678;BME280;7939;50.814;6.368;2023-09-19T01:52:31;99388.16;;;21.89;56.58
15678;BME280;7939;50.814;6.368;2023-09-19T01:55:06;99379.50;;;21.89;56.65
15678;BME280;7939;50.814;6.368;2023-09-19T01:57:38;99378.66;;;21.88;56.26
15678;BME280;7939;50.814;6.368;2023-09-19T02:00:10;99384.84;;;21.86;56.48
15678;BME280;7939;50.814;6.368;2023-09-19T02:02:41;99381.59;;;21.82;55.90
15678;BME280;7939;50.814;6.368;2023-09-19T02:05:09;99377.38;;;21.79;56.37
15678;BME280;7939;50.814;6.368;2023-09-19T02:07:38;99381.97;;;21.74;56.02
15678;BME280;7939;50.814;6.368;2023-09-19T02:10:06;99378.53;;;21.74;56.27
15678;BME280;7939;50.814;6.368;2023-09-19T02:12:35;99385.25;;;21.78;56.62
15678;BME280;7939;50.814;6.368;2023-09-19T02:15:03;99387.13;;;21.76;56.46
15678;BME280;7939;50.814;6.368;2023-09-19T02:17:32;99383.72;;;21.74;56.68
15678;BME280;7939;50.814;6.368;2023-09-19T02:20:00;99396.06;;;21.70;56.48
15678;BME280;7939;50.814;6.368;2023-09-19T02:22:27;99398.81;;;21.67;56.13
15678;BME280;7939;50.814;6.368;2023-09-19T02:24:55;99398.97;;;21.64;56.79
15678;BME280;7939;50.814;6.368;2023-09-19T02:27:23;99394.44;;;21.68;56.46
15678;BME280;7939;50.814;6.368;2023-09-19T02:29:50;99396.16;;;21.69;56.51
15678;BME280;7939;50.814;6.368;2023-09-19T02:32:17;99398.97;;;21.64;55.92
15678;BME280;7939;50.814;6.368;2023-09-19T02:34:44;99401.72;;;21.61;56.80
15678;BME280;7939;50.814;6.368;2023-09-19T02:37:12;99398.47;;;21.58;56.44
15678;BME280;7939;50.814;6.368;2023-09-19T02:39:41;99393.09;;;21.61;56.66
15678;BME280;7939;50.814;6.368;2023-09-19T02:42:08;99399.13;;;21.61;56.81
15678;BME280;7939;50.814;6.368;2023-09-19T02:44:34;99393.41;;;21.54;56.68
15678;BME280;7939;50.814;6.368;2023-09-19T02:47:01;99397.63;;;21.57;56.71
15678;BME280;7939;50.814;6.368;2023-09-19T02:49:28;99392.03;;;21.47;56.10
15678;BME280;7939;50.814;6.368;2023-09-19T02:51:54;99397.94;;;21.51;56.58
15678;BME280;7939;50.814;6.368;2023-09-19T02:54:22;99399.94;;;21.46;56.35
15678;BME280;7939;50.814;6.368;2023-09-19T02:56:49;99388.38;;;21.51;56.65
15678;BME280;7939;50.814;6.368;2023-09-19T02:59:15;99382.69;;;21.43;56.33
15678;BME280;7939;50.814;6.368;2023-09-19T03:01:43;99403.59;;;21.42;56.02
15678;BME280;7939;50.814;6.368;2023-09-19T03:04:09;99394.94;;;21.41;56.59
15678;BME280;7939;50.814;6.368;2023-09-19T03:06:36;99391.50;;;21.41;55.87
15678;BME280;7939;50.814;6.368;2023-09-19T03:09:03;99390.50;;;21.43;56.72
15678;BME280;7939;50.814;6.368;2023-09-19T03:11:32;99400.91;;;21.43;56.90
15678;BME280;7939;50.814;6.368;2023-09-19T03:13:59;99391.38;;;21.44;56.88
15678;BME280;7939;50.814;6.368;2023-09-19T03:16:25;99392.44;;;21.40;56.47
15678;BME280;7939;50.814;6.368;2023-09-19T03:18:52;99394.50;;;21.33;56.71
15678;BME280;7939;50.814;6.368;2023-09-19T03:21:18;99392.75;;;21.34;56.81
15678;BME280;7939;50.814;6.368;2023-09-19T03:23:47;99394.91;;;21.24;56.17
15678;BME280;7939;50.814;6.368;2023-09-19T03:26:13;99398.06;;;21.31;56.84
15678;BME280;7939;50.814;6.368;2023-09-19T03:28:42;99396.63;;;21.25;55.98
15678;BME280;7939;50.814;6.368;2023-09-19T03:31:11;99407.41;;;21.35;56.64
15678;BME280;7939;50.814;6.368;2023-09-19T03:33:37;99402.31;;;21.33;56.83
15678;BME280;7939;50.814;6.368;2023-09-19T03:36:04;99403.28;;;21.13;55.43
15678;BME280;7939;50.814;6.368;2023-09-19T03:38:31;99410.50;;;21.24;56.38
15678;BME280;7939;50.814;6.368;2023-09-19T03:40:58;99404.47;;;21.23;56.40
15678;BME280;7939;50.814;6.368;2023-09-19T03:43:25;99407.25;;;21.20;56.48
15678;BME280;7939;50.814;6.368;2023-09-19T03:45:53;99404.41;;;21.25;56.54
15678;BME280;7939;50.814;6.368;2023-09-19T03:48:20;99415.66;;;21.25;56.66
15678;BME280;7939;50.814;6.368;2023-09-19T03:50:48;99405.41;;;21.22;56.28
15678;BME280;7939;50.814;6.368;2023-09-19T03:53:15;99409.97;;;21.17;56.22
15678;BME280;7939;50.814;6.368;2023-09-19T03:55:41;99412.34;;;21.22;56.78
15678;BME280;7939;50.814;6.368;2023-09-19T03:58:10;99408.22;;;21.18;56.78
15678;BME280;7939;50.814;6.368;2023-09-19T04:00:37;99409.59;;;21.08;56.13
15678;BME280;7939;50.814;6.368;2023-09-19T04:03:05;99402.47;;;21.11;56.60
15678;BME280;7939;50.814;6.368;2023-09-19T04:05:33;99411.81;;;21.15;57.14
15678;BME280;7939;50.814;6.368;2023-09-19T04:07:59;99401.94;;;21.05;56.16
15678;BME280;7939;50.814;6.368;2023-09-19T04:10:26;99404.41;;;21.08;56.41
15678;BME280;7939;50.814;6.368;2023-09-19T04:12:54;99412.81;;;21.13;56.71
15678;BME280;7939;50.814;6.368;2023-09-19T04:15:21;99410.44;;;21.08;56.92
15678;BME280;7939;50.814;6.368;2023-09-19T04:17:48;99406.91;;;21.09;56.70
15678;BME280;7939;50.814;6.368;2023-09-19T04:20:17;99394.00;;;21.08;56.74
15678;BME280;7939;50.814;6.368;2023-09-19T04:22:45;99398.19;;;20.93;56.16
15678;BME280;7939;50.814;6.368;2023-09-19T04:25:11;99404.47;;;20.89;56.06
15678;BME280;7939;50.814;6.368;2023-09-19T04:27:38;99406.13;;;20.90;56.13
15678;BME280;7939;50.814;6.368;2023-09-19T04:30:06;99401.47;;;20.96;56.82
15678;BME280;7939;50.814;6.368;2023-09-19T04:32:37;99404.09;;;20.96;56.44
15678;BME280;7939;50.814;6.368;2023-09-19T04:35:06;99403.06;;;20.99;56.29
15678;BME280;7939;50.814;6.368;2023-09-19T04:37:37;99401.56;;;20.95;56.45
15678;BME280;7939;50.814;6.368;2023-09-19T04:40:07;99400.09;;;20.89;56.90
15678;BME280;7939;50.814;6.368;2023-09-19T04:42:38;99395.03;;;20.86;56.28
15678;BME280;7939;50.814;6.368;2023-09-19T04:45:06;99403.50;;;20.72;55.86
15678;BME280;7939;50.814;6.368;2023-09-19T04:47:33;99405.50;;;20.85;56.67
15678;BME280;7939;50.814;6.368;2023-09-19T04:49:59;99411.38;;;20.71;56.13
15678;BME280;7939;50.814;6.368;2023-09-19T04:52:26;99420.47;;;20.80;56.85
15678;BME280;7939;50.814;6.368;2023-09-19T04:54:54;99412.09;;;20.74;56.17
15678;BME280;7939;50.814;6.368;2023-09-19T04:57:20;99415.72;;;20.70;55.73
15678;BME280;7939;50.814;6.368;2023-09-19T04:59:48;99422.03;;;20.65;56.54
15678;BME280;7939;50.814;6.368;2023-09-19T05:02:15;99426.88;;;20.72;56.18
15678;BME280;7939;50.814;6.368;2023-09-19T05:04:42;99431.97;;;20.74;56.43
15678;BME280;7939;50.814;6.368;2023-09-19T05:07:08;99437.41;;;20.69;56.16
15678;BME280;7939;50.814;6.368;2023-09-19T05:09:36;99438.38;;;20.67;56.17
15678;BME280;7939;50.814;6.368;2023-09-19T05:12:04;99437.25;;;20.72;56.79
15678;BME280;7939;50.814;6.368;2023-09-19T05:14:31;99443.53;;;20.68;56.71
15678;BME280;7939;50.814;6.368;2023-09-19T05:16:58;99441.69;;;20.70;56.84
15678;BME280;7939;50.814;6.368;2023-09-19T05:19:24;99447.25;;;20.63;56.43
15678;BME280;7939;50.814;6.368;2023-09-19T05:21:51;99452.22;;;20.67;56.22
15678;BME280;7939;50.814;6.368;2023-09-19T05:24:18;99455.72;;;20.66;56.48
15678;BME280;7939;50.814;6.368;2023-09-19T05:26:45;99463.66;;;20.63;57.15
15678;BME280;7939;50.814;6.368;2023-09-19T05:29:13;99461.47;;;20.54;56.79
15678;BME280;7939;50.814;6.368;2023-09-19T05:31:39;99463.94;;;20.57;56.71
15678;BME280;7939;50.814;6.368;2023-09-19T05:34:08;99463.13;;;20.57;56.39
15678;BME280;7939;50.814;6.368;2023-09-19T05:36:35;99464.91;;;20.55;56.90
15678;BME280;7939;50.814;6.368;2023-09-19T05:39:01;99473.69;;;20.52;56.33
15678;BME280;7939;50.814;6.368;2023-09-19T05:41:28;99467.31;;;20.59;56.78
15678;BME280;7939;50.814;6.368;2023-09-19T05:43:55;99469.50;;;20.50;56.03
15678;BME280;7939;50.814;6.368;2023-09-19T05:46:23;99479.22;;;20.44;56.16
15678;BME280;7939;50.814;6.368;2023-09-19T05:48:52;99473.69;;;20.52;56.97
15678;BME280;7939;50.814;6.368;2023-09-19T05:51:18;99480.97;;;20.44;56.48
15678;BME280;7939;50.814;6.368;2023-09-19T05:53:47;99479.22;;;20.44;56.45
15678;BME280;7939;50.814;6.368;2023-09-19T05:56:15;99485.59;;;20.37;57.04
15678;BME280;7939;50.814;6.368;2023-09-19T05:58:44;99488.75;;;20.25;56.18
15678;BME280;7939;50.814;6.368;2023-09-19T06:01:10;99490.56;;;20.42;56.65
15678;BME280;7939;50.814;6.368;2023-09-19T06:03:38;99491.19;;;20.28;56.36
15678;BME280;7939;50.814;6.368;2023-09-19T06:06:05;99491.75;;;20.35;56.43
15678;BME280;7939;50.814;6.368;2023-09-19T06:08:33;99487.66;;;20.29;56.57
15678;BME280;7939;50.814;6.368;2023-09-19T06:10:59;99501.75;;;20.24;55.84
15678;BME280;7939;50.814;6.368;2023-09-19T06:13:28;99503.25;;;20.29;56.63
15678;BME280;7939;50.814;6.368;2023-09-19T06:15:54;99511.59;;;20.36;56.81
15678;BME280;7939;50.814;6.368;2023-09-19T06:18:22;99512.94;;;20.26;56.65
15678;BME280;7939;50.814;6.368;2023-09-19T06:20:53;99508.81;;;20.40;57.02
15678;BME280;7939;50.814;6.368;2023-09-19T06:23:21;99513.50;;;20.32;56.57
15678;BME280;7939;50.814;6.368;2023-09-19T06:25:48;99504.03;;;20.31;56.37
15678;BME280;7939;50.814;6.368;2023-09-19T06:28:14;99498.31;;;20.23;56.92
15678;BME280;7939;50.814;6.368;2023-09-19T06:30:44;99501.50;;;20.30;57.22
15678;BME280;7939;50.814;6.368;2023-09-19T06:33:10;99509.84;;;20.36;56.68
15678;BME280;7939;50.814;6.368;2023-09-19T06:35:38;99518.13;;;20.26;56.78
15678;BME280;7939;50.814;6.368;2023-09-19T06:38:06;99505.41;;;20.19;56.79
15678;BME280;7939;50.814;6.368;2023-09-19T06:40:33;99504.09;;;20.30;56.99
15678;BME280;7939;50.814;6.368;2023-09-19T06:43:00;99513.50;;;20.32;57.35
15678;BME280;7939;50.814;6.368;2023-09-19T06:45:29;99506.06;;;20.25;56.80
15678;BME280;7939;50.814;6.368;2023-09-19T06:47:57;99512.66;;;20.32;57.12
15678;BME280;7939;50.814;6.368;2023-09-19T06:50:26;99510.34;;;20.26;56.64
15678;BME280;7939;50.814;6.368;2023-09-19T06:52:54;99508.66;;;20.25;56.88
15678;BME280;7939;50.814;6.368;2023-09-19T06:55:23;99520.22;;;20.36;57.05
15678;BME280;7939;50.814;6.368;2023-09-19T06:57:53;99512.59;;;20.33;56.67
15678;BME280;7939;50.814;6.368;2023-09-19T07:00:20;99504.72;;;20.35;56.68
15678;BME280;7939;50.814;6.368;2023-09-19T07:02:55;99503.41;;;20.26;56.46
15678;BME280;7939;50.814;6.368;2023-09-19T07:05:22;99497.72;;;20.37;57.22
15678;BME280;7939;50.814;6.368;2023-09-19T07:07:49;99511.41;;;20.40;56.78
15678;BME280;7939;50.814;6.368;2023-09-19T07:10:16;99509.91;;;20.35;56.42
15678;BME280;7939;50.814;6.368;2023-09-19T07:12:44;99516.19;;;20.31;56.58
15678;BME280;7939;50.814;6.368;2023-09-19T07:15:11;99507.75;;;20.26;56.43
15678;BME280;7939;50.814;6.368;2023-09-19T07:17:38;99509.91;;;20.35;56.74
15678;BME280;7939;50.814;6.368;2023-09-19T07:20:06;99508.16;;;20.35;56.95
15678;BME280;7939;50.814;6.368;2023-09-19T07:22:33;99513.31;;;20.37;56.62
15678;BME280;7939;50.814;6.368;2023-09-19T07:25:00;99509.81;;;20.17;56.24
15678;BME280;7939;50.814;6.368;2023-09-19T07:27:27;99521.47;;;20.28;56.75
15678;BME280;7939;50.814;6.368;2023-09-19T07:29:54;99522.06;;;20.34;56.80
15678;BME280;7939;50.814;6.368;2023-09-19T07:32:21;99525.09;;;20.24;56.14
15678;BME280;7939;50.814;6.368;2023-09-19T07:34:49;99526.34;;;20.35;56.67
15678;BME280;7939;50.814;6.368;2023-09-19T07:37:16;99524.06;;;20.28;57.02
15678;BME280;7939;50.814;6.368;2023-09-19T07:39:42;99528.63;;;20.23;56.04
15678;BME280;7939;50.814;6.368;2023-09-19T07:42:10;99537.50;;;20.17;55.70
15678;BME280;7939;50.814;6.368;2023-09-19T07:44:43;99533.81;;;20.23;56.63
15678;BME280;7939;50.814;6.368;2023-09-19T07:47:14;99545.09;;;20.21;56.13
15678;BME280;7939;50.814;6.368;2023-09-19T07:49:41;99535.50;;;20.24;56.45
15678;BME280;7939;50.814;6.368;2023-09-19T07:52:08;99538.25;;;20.20;55.59
15678;BME280;7939;50.814;6.368;2023-09-19T07:54:35;99540.28;;;20.33;56.22
15678;BME280;7939;50.814;6.368;2023-09-19T07:57:03;99532.38;;;20.36;56.13
15678;BME280;7939;50.814;6.368;2023-09-19T07:59:30;99544.84;;;20.28;55.70
15678;BME280;7939;50.814;6.368;2023-09-19T08:01:56;99542.16;;;20.29;55.79
15678;BME280;7939;50.814;6.368;2023-09-19T08:04:24;99536.81;;;20.13;56.10
15678;BME280;7939;50.814;6.368;2023-09-19T08:06:51;99540.75;;;20.22;55.81
15678;BME280;7939;50.814;6.368;2023-09-19T08:09:18;99546.19;;;20.36;56.39
15678;BME280;7939;50.814;6.368;2023-09-19T08:11:46;99545.34;;;20.36;55.89
15678;BME280;7939;50.814;6.368;2023-09-19T08:14:13;99545.97;;;20.41;56.19
15678;BME280;7939;50.814;6.368;2023-09-19T08:16:40;99535.94;;;20.33;55.90
15678;BME280;7939;50.814;6.368;2023-09-19T08:19:08;99545.34;;;20.36;55.68
15678;BME280;7939;50.814;6.368;2023-09-19T08:21:38;99539.38;;;20.34;55.65
15678;BME280;7939;50.814;6.368;2023-09-19T08:24:04;99534.84;;;20.39;55.50
15678;BME280;7939;50.814;6.368;2023-09-19T08:26:31;99530.50;;;20.39;55.58
15678;BME280;7939;50.814;6.368;2023-09-19T08:28:58;99534.84;;;20.39;55.61
15678;BME280;7939;50.814;6.368;2023-09-19T08:31:30;99543.28;;;20.44;56.36
15678;BME280;7939;50.814;6.368;2023-09-19T08:33:56;99523.88;;;20.32;55.11
15678;BME280;7939;50.814;6.368;2023-09-19T08:36:23;99542.69;;;20.37;55.64
15678;BME280;7939;50.814;6.368;2023-09-19T08:38:51;99537.56;;;20.36;55.09
15678;BME280;7939;50.814;6.368;2023-09-19T08:41:17;99538.91;;;20.44;55.24
15678;BME280;7939;50.814;6.368;2023-09-19T08:43:45;99540.56;;;20.47;55.98
15678;BME280;7939;50.814;6.368;2023-09-19T08:46:15;99532.50;;;20.53;55.59
15678;BME280;7939;50.814;6.368;2023-09-19T08:48:45;99537.75;;;20.52;54.56
15678;BME280;7939;50.814;6.368;2023-09-19T08:51:18;99547.16;;;20.54;55.19
15678;BME280;7939;50.814;6.368;2023-09-19T08:53:54;99549.63;;;20.57;55.29
15678;BME280;7939;50.814;6.368;2023-09-19T08:56:26;99558.44;;;20.53;54.57
15678;BME280;7939;50.814;6.368;2023-09-19T08:58:57;99549.47;;;20.60;55.02
15678;BME280;7939;50.814;6.368;2023-09-19T09:01:27;99560.59;;;20.64;54.98
15678;BME280;7939;50.814;6.368;2023-09-19T09:03:56;99553.72;;;20.63;54.55
15678;BME280;7939;50.814;6.368;2023-09-19T09:06:24;99563.09;;;20.65;54.62
15678;BME280;7939;50.814;6.368;2023-09-19T09:08:57;99559.41;;;20.71;54.90
15678;BME280;7939;50.814;6.368;2023-09-19T09:11:24;99567.94;;;20.73;54.88
15678;BME280;7939;50.814;6.368;2023-09-19T09:13:51;99561.16;;;20.70;54.38
15678;BME280;7939;50.814;6.368;2023-09-19T09:16:17;99542.97;;;20.70;53.98
15678;BME280;7939;50.814;6.368;2023-09-19T09:18:44;99553.16;;;20.75;54.22
15678;BME280;7939;50.814;6.368;2023-09-19T09:21:11;99548.66;;;20.79;54.09
15678;BME280;7939;50.814;6.368;2023-09-19T09:23:38;99547.69;;;20.81;54.58
15678;BME280;7939;50.814;6.368;2023-09-19T09:26:06;99543.34;;;20.82;54.25
15678;BME280;7939;50.814;6.368;2023-09-19T09:28:35;99547.41;;;20.87;54.95
15678;BME280;7939;50.814;6.368;2023-09-19T09:31:04;99544.81;;;20.87;54.24
15678;BME280;7939;50.814;6.368;2023-09-19T09:33:34;99541.13;;;20.91;54.21
15678;BME280;7939;50.814;6.368;2023-09-19T09:36:02;99541.06;;;20.93;53.95
15678;BME280;7939;50.814;6.368;2023-09-19T09:38:43;99537.56;;;20.94;53.61
15678;BME280;7939;50.814;6.368;2023-09-19T09:41:12;99538.25;;;20.97;54.19
15678;BME280;7939;50.814;6.368;2023-09-19T09:43:41;99541.56;;;21.01;54.13
15678;BME280;7939;50.814;6.368;2023-09-19T09:46:13;99542.31;;;21.03;54.23
15678;BME280;7939;50.814;6.368;2023-09-19T09:49:00;99530.09;;;21.05;54.42
15678;BME280;7939;50.814;6.368;2023-09-19T09:51:45;99534.31;;;21.08;54.36
15678;BME280;7939;50.814;6.368;2023-09-19T09:54:15;99535.16;;;21.08;53.67
15678;BME280;7939;50.814;6.368;2023-09-19T09:57:01;99533.31;;;21.10;53.19
15678;BME280;7939;50.814;6.368;2023-09-19T09:59:50;99536.56;;;21.15;53.72
15678;BME280;7939;50.814;6.368;2023-09-19T10:02:19;99523.44;;;21.18;53.69
15678;BME280;7939;50.814;6.368;2023-09-19T10:04:53;99522.50;;;21.19;53.52
15678;BME280;7939;50.814;6.368;2023-09-19T10:07:33;99531.00;;;21.23;53.75
15678;BME280;7939;50.814;6.368;2023-09-19T10:10:02;99533.38;;;21.27;53.66
15678;BME280;7939;50.814;6.368;2023-09-19T10:12:44;99532.53;;;21.27;54.02
15678;BME280;7939;50.814;6.368;2023-09-19T10:15:16;99524.59;;;21.30;54.62
15678;BME280;7939;50.814;6.368;2023-09-19T10:17:46;99534.13;;;21.31;53.39
15678;BME280;7939;50.814;6.368;2023-09-19T10:20:14;99534.22;;;21.28;53.11
15678;BME280;7939;50.814;6.368;2023-09-19T10:22:59;99535.72;;;21.34;53.06
15678;BME280;7939;50.814;6.368;2023-09-19T10:25:28;99532.13;;;21.36;53.46
15678;BME280;7939;50.814;6.368;2023-09-19T10:28:00;99521.59;;;21.39;53.70
15678;BME280;7939;50.814;6.368;2023-09-19T10:30:29;99524.19;;;21.39;54.31
15678;BME280;7939;50.814;6.368;2023-09-19T10:33:01;99516.22;;;21.42;54.49
15678;BME280;7939;50.814;6.368;2023-09-19T10:35:28;99518.69;;;21.45;54.52
15678;BME280;7939;50.814;6.368;2023-09-19T10:37:59;99527.25;;;21.47;53.24
15678;BME280;7939;50.814;6.368;2023-09-19T10:40:26;99516.75;;;21.49;53.67
15678;BME280;7939;50.814;6.368;2023-09-19T10:43:01;99511.50;;;21.50;54.10
15678;BME280;7939;50.814;6.368;2023-09-19T10:45:31;99517.38;;;21.54;54.07
15678;BME280;7939;50.814;6.368;2023-09-19T10:47:58;99520.06;;;21.52;52.64
15678;BME280;7939;50.814;6.368;2023-09-19T10:50:27;99543.38;;;21.54;52.40
15678;BME280;7939;50.814;6.368;2023-09-19T10:52:59;99527.03;;;21.52;52.69
15678;BME280;7939;50.814;6.368;2023-09-19T10:55:31;99531.31;;;21.53;51.56
15678;BME280;7939;50.814;6.368;2023-09-19T10:58:02;99534.75;;;21.53;52.58
15678;BME280;7939;50.814;6.368;2023-09-19T11:00:53;99535.66;;;21.52;52.45
15678;BME280;7939;50.814;6.368;2023-09-19T11:03:22;99528.63;;;21.54;51.53
15678;BME280;7939;50.814;6.368;2023-09-19T11:06:04;99531.16;;;21.56;52.11
15678;BME280;7939;50.814;6.368;2023-09-19T11:08:55;99531.91;;;21.58;52.96
15678;BME280;7939;50.814;6.368;2023-09-19T11:11:39;99536.19;;;21.59;52.61
15678;BME280;7939;50.814;6.368;2023-09-19T11:14:32;99538.81;;;21.59;51.84
15678;BME280;7939;50.814;6.368;2023-09-19T11:20:23;99539.56;;;21.61;51.95
15678;BME280;7939;50.814;6.368;2023-09-19T11:23:21;99545.69;;;21.60;51.59
15678;BME280;7939;50.814;6.368;2023-09-19T11:25:50;99549.91;;;21.63;52.22
15678;BME280;7939;50.814;6.368;2023-09-19T11:28:31;99549.22;;;21.59;51.64
15678;BME280;7939;50.814;6.368;2023-09-19T11:34:42;99538.72;;;21.61;50.73
15678;BME280;7939;50.814;6.368;2023-09-19T11:40:28;99542.94;;;21.63;51.79
15678;BME280;7939;50.814;6.368;2023-09-19T11:42:56;99541.09;;;21.65;50.81
15678;BME280;7939;50.814;6.368;2023-09-19T11:46:02;99540.25;;;21.65;51.63
15678;BME280;7939;50.814;6.368;2023-09-19T11:48:29;99534.06;;;21.67;52.06
15678;BME280;7939;50.814;6.368;2023-09-19T11:50:56;99532.25;;;21.69;52.11
15678;BME280;7939;50.814;6.368;2023-09-19T11:53:31;99533.91;;;21.70;51.58
15678;BME280;7939;50.814;6.368;2023-09-19T11:56:01;99533.00;;;21.71;51.97
15678;BME280;7939;50.814;6.368;2023-09-19T11:58:30;99519.16;;;21.71;51.80
15678;BME280;7939;50.814;6.368;2023-09-19T12:01:01;99530.31;;;21.73;51.27
15678;BME280;7939;50.814;6.368;2023-09-19T12:03:35;99525.03;;;21.74;51.61
15678;BME280;7939;50.814;6.368;2023-09-19T12:06:10;99525.81;;;21.76;51.47
15678;BME280;7939;50.814;6.368;2023-09-19T12:08:39;99522.38;;;21.76;50.99
15678;BME280;7939;50.814;6.368;2023-09-19T12:11:12;99517.75;;;21.81;50.75
15678;BME280;7939;50.814;6.368;2023-09-19T12:13:44;99510.81;;;21.81;51.19
15678;BME280;7939;50.814;6.368;2023-09-19T12:16:17;99517.69;;;21.83;51.33
15678;BME280;7939;50.814;6.368;2023-09-19T12:18:47;99526.25;;;21.85;51.27
15678;BME280;7939;50.814;6.368;2023-09-19T12:21:26;99521.16;;;21.83;50.50
15678;BME280;7939;50.814;6.368;2023-09-19T12:24:12;99499.31;;;21.86;50.63
15678;BME280;7939;50.814;6.368;2023-09-19T12:26:40;99513.88;;;21.90;50.20
15678;BME280;7939;50.814;6.368;2023-09-19T12:29:19;99516.56;;;21.88;50.53
15678;BME280;7939;50.814;6.368;2023-09-19T12:31:52;99516.38;;;21.91;50.64
15678;BME280;7939;50.814;6.368;2023-09-19T12:34:23;99512.03;;;21.92;50.75
15678;BME280;7939;50.814;6.368;2023-09-19T12:37:12;99505.06;;;21.92;50.44
15678;BME280;7939;50.814;6.368;2023-09-19T12:39:42;99503.28;;;21.93;50.97
15678;BME280;7939;50.814;6.368;2023-09-19T12:42:10;99499.78;;;21.94;51.37
15678;BME280;7939;50.814;6.368;2023-09-19T12:44:41;99491.91;;;21.95;51.12
15678;BME280;7939;50.814;6.368;2023-09-19T12:47:11;99495.44;;;21.94;50.02
15678;BME280;7939;50.814;6.368;2023-09-19T12:50:09;99489.28;;;21.95;50.53
15678;BME280;7939;50.814;6.368;2023-09-19T12:52:41;99487.44;;;21.97;50.07
15678;BME280;7939;50.814;6.368;2023-09-19T12:55:19;99493.41;;;21.99;49.69
15678;BME280;7939;50.814;6.368;2023-09-19T12:57:58;99484.75;;;21.99;50.04
15678;BME280;7939;50.814;6.368;2023-09-19T13:00:32;99490.75;;;22.01;49.42
15678;BME280;7939;50.814;6.368;2023-09-19T13:03:15;99482.00;;;22.02;49.11
15678;BME280;7939;50.814;6.368;2023-09-19T13:05:48;99485.53;;;22.01;49.86
15678;BME280;7939;50.814;6.368;2023-09-19T13:08:20;99469.97;;;21.99;50.03
15678;BME280;7939;50.814;6.368;2023-09-19T13:11:01;99474.28;;;22.00;51.10
15678;BME280;7939;50.814;6.368;2023-09-19T13:13:28;99460.34;;;22.01;50.69
15678;BME280;7939;50.814;6.368;2023-09-19T13:15:55;99467.25;;;22.02;51.97
15678;BME280;7939;50.814;6.368;2023-09-19T13:18:24;99473.28;;;22.03;52.01
15678;BME280;7939;50.814;6.368;2023-09-19T13:21:05;99464.63;;;22.02;50.99
15678;BME280;7939;50.814;6.368;2023-09-19T13:23:33;99466.22;;;22.05;50.61
15678;BME280;7939;50.814;6.368;2023-09-19T13:25:59;99464.47;;;22.05;50.18
15678;BME280;7939;50.814;6.368;2023-09-19T13:28:26;99473.06;;;22.07;50.07
15678;BME280;7939;50.814;6.368;2023-09-19T13:30:53;99477.34;;;22.08;50.46
15678;BME280;7939;50.814;6.368;2023-09-19T13:33:20;99473.88;;;22.08;50.27
15678;BME280;7939;50.814;6.368;2023-09-19T13:35:48;99474.69;;;22.10;49.70